sensor_id;sensor_type;location;lat;lon;timestamp;pressure;altitude;pressure_sealevel;temperature;humidity
74372;BME280;62885;51.374;6.170;2022-11-20T00:00:05;101051.97;;;1.00;74.83
74372;BME280;62885;51.374;6.170;2022-11-20T00:02:30;101049.22;;;1.05;74.62
74372;BME280;62885;51.374;6.170;2022-11-20T00:04:55;101051.06;;;1.01;74.36
74372;BME280;62885;51.374;6.170;2022-11-20T00:07:21;101048.56;;;0.98;74.04
74372;BME280;62885;51.374;6.170;2022-11-20T00:09:46;101053.66;;;1.03;74.51
74372;BME280;62885;51.374;6.170;2022-11-20T00:12:11;101048.13;;;0.82;74.71
74372;BME280;62885;51.374;6.170;2022-11-20T00:14:37;101047.69;;;0.98;74.88
74372;BME280;62885;51.374;6.170;2022-11-20T00:17:02;101042.94;;;1.09;74.65
74372;BME280;62885;51.374;6.170;2022-11-20T00:19:27;101045.03;;;0.98;74.93
74372;BME280;62885;51.374;6.170;2022-11-20T00:21:53;101036.47;;;1.17;74.83
74372;BME280;62885;51.374;6.170;2022-11-20T00:24:20;101046.13;;;1.18;74.22
74372;BME280;62885;51.374;6.170;2022-11-20T00:26:46;101038.13;;;1.21;73.58
74372;BME280;62885;51.374;6.170;2022-11-20T00:29:11;101036.28;;;0.97;75.24
74372;BME280;62885;51.374;6.170;2022-11-20T00:31:36;101034.16;;;1.08;74.45
74372;BME280;62885;51.374;6.170;2022-11-20T00:34:02;101019.75;;;0.92;75.33
74372;BME280;62885;51.374;6.170;2022-11-20T00:36:28;101020.69;;;0.90;75.68
74372;BME280;62885;51.374;6.170;2022-11-20T00:38:57;101012.94;;;0.85;75.87
74372;BME280;62885;51.374;6.170;2022-11-20T00:41:24;101021.03;;;0.79;76.62
74372;BME280;62885;51.374;6.170;2022-11-20T00:43:52;101024.56;;;0.78;77.19
74372;BME280;62885;51.374;6.170;2022-11-20T00:46:20;101020.69;;;0.90;76.16
74372;BME280;62885;51.374;6.170;2022-11-20T00:48:46;101017.19;;;0.89;77.09
74372;BME280;62885;51.374;6.170;2022-11-20T00:51:17;101019.28;;;0.78;77.11
74372;BME280;62885;51.374;6.170;2022-11-20T00:53:43;101016.72;;;1.04;76.11
74372;BME280;62885;51.374;6.170;2022-11-20T00:56:14;101016.41;;;1.13;75.75
74372;BME280;62885;51.374;6.170;2022-11-20T00:58:41;101015.56;;;0.85;76.20
74372;BME280;62885;51.374;6.170;2022-11-20T01:01:12;101010.72;;;0.71;76.81
74372;BME280;62885;51.374;6.170;2022-11-20T01:03:39;101019.88;;;0.88;76.73
74372;BME280;62885;51.374;6.170;2022-11-20T01:06:13;101018.97;;;0.89;77.52
74372;BME280;62885;51.374;6.170;2022-11-20T01:08:39;101005.59;;;0.67;77.34
74372;BME280;62885;51.374;6.170;2022-11-20T01:11:07;100995.28;;;0.59;78.36
74372;BME280;62885;51.374;6.170;2022-11-20T01:13:34;100990.56;;;0.41;78.58
74372;BME280;62885;51.374;6.170;2022-11-20T01:16:05;100988.91;;;0.38;78.55
74372;BME280;62885;51.374;6.170;2022-11-20T01:18:31;100981.88;;;0.39;79.99
74372;BME280;62885;51.374;6.170;2022-11-20T01:21:03;100986.53;;;0.29;79.37
74372;BME280;62885;51.374;6.170;2022-11-20T01:23:31;100993.69;;;0.24;80.38
74372;BME280;62885;51.374;6.170;2022-11-20T01:25:59;100987.47;;;0.28;80.11
74372;BME280;62885;51.374;6.170;2022-11-20T01:28:24;100983.88;;;0.29;81.18
74372;BME280;62885;51.374;6.170;2022-11-20T01:30:50;100979.31;;;0.36;80.07
74372;BME280;62885;51.374;6.170;2022-11-20T01:33:15;100978.34;;;0.40;80.84
74372;BME280;62885;51.374;6.170;2022-11-20T01:35:40;100971.75;;;0.53;80.89
74372;BME280;62885;51.374;6.170;2022-11-20T01:38:06;100971.94;;;0.47;80.52
74372;BME280;62885;51.374;6.170;2022-11-20T01:40:31;100981.72;;;0.44;80.59
74372;BME280;62885;51.374;6.170;2022-11-20T01:43:12;100984.22;;;0.48;79.99
74372;BME280;62885;51.374;6.170;2022-11-20T01:48:30;100983.88;;;0.29;81.25
74372;BME280;62885;51.374;6.170;2022-11-20T01:50:57;100988.31;;;0.29;81.07
74372;BME280;62885;51.374;6.170;2022-11-20T01:53:25;100999.16;;;0.48;80.54
74372;BME280;62885;51.374;6.170;2022-11-20T01:55:55;100999.78;;;0.56;80.98
74372;BME280;62885;51.374;6.170;2022-11-20T01:58:34;100990.84;;;0.61;81.03
74372;BME280;62885;51.374;6.170;2022-11-20T02:01:01;100996.16;;;0.60;81.07
74372;BME280;62885;51.374;6.170;2022-11-20T02:03:27;100997.00;;;0.60;80.85
74372;BME280;62885;51.374;6.170;2022-11-20T02:08:25;100988.88;;;0.40;82.11
74372;BME280;62885;51.374;6.170;2022-11-20T02:10:50;100986.34;;;0.35;82.56
74372;BME280;62885;51.374;6.170;2022-11-20T02:13:16;100978.38;;;0.38;81.63
74372;BME280;62885;51.374;6.170;2022-11-20T02:16:01;100981.00;;;0.38;81.83
74372;BME280;62885;51.374;6.170;2022-11-20T02:18:27;100981.00;;;0.38;81.81
74372;BME280;62885;51.374;6.170;2022-11-20T02:20:59;100983.59;;;0.40;82.35
74372;BME280;62885;51.374;6.170;2022-11-20T02:23:51;100980.31;;;0.32;82.07
74372;BME280;62885;51.374;6.170;2022-11-20T02:26:17;100979.75;;;0.22;81.96
74372;BME280;62885;51.374;6.170;2022-11-20T02:28:43;100976.13;;;0.25;81.85
74372;BME280;62885;51.374;6.170;2022-11-20T02:31:08;100980.78;;;0.17;81.80
74372;BME280;62885;51.374;6.170;2022-11-20T02:33:33;100986.06;;;0.17;81.78
74372;BME280;62885;51.374;6.170;2022-11-20T02:35:59;100982.44;;;0.19;82.67
74372;BME280;62885;51.374;6.170;2022-11-20T02:38:24;100983.50;;;0.14;82.57
74372;BME280;62885;51.374;6.170;2022-11-20T02:40:49;100978.94;;;0.19;82.33
74372;BME280;62885;51.374;6.170;2022-11-20T02:43:16;100980.06;;;0.12;82.66
74372;BME280;62885;51.374;6.170;2022-11-20T02:45:41;100978.16;;;-0.14;83.28
74372;BME280;62885;51.374;6.170;2022-11-20T02:48:06;100979.91;;;-0.15;83.71
74372;BME280;62885;51.374;6.170;2022-11-20T02:50:36;100988.19;;;0.03;83.53
74372;BME280;62885;51.374;6.170;2022-11-20T02:53:02;100983.09;;;-0.04;84.43
74372;BME280;62885;51.374;6.170;2022-11-20T02:55:27;100984.81;;;-0.01;83.97
74372;BME280;62885;51.374;6.170;2022-11-20T02:57:52;100984.91;;;-0.06;84.30
74372;BME280;62885;51.374;6.170;2022-11-20T03:00:18;100987.03;;;0.13;84.10
74372;BME280;62885;51.374;6.170;2022-11-20T03:02:43;100985.34;;;0.10;84.48
74372;BME280;62885;51.374;6.170;2022-11-20T03:05:09;100990.34;;;0.19;84.85
74372;BME280;62885;51.374;6.170;2022-11-20T03:07:34;100991.69;;;0.34;84.50
74372;BME280;62885;51.374;6.170;2022-11-20T03:09:59;100982.72;;;0.39;83.89
74372;BME280;62885;51.374;6.170;2022-11-20T03:12:26;100981.88;;;0.39;83.67
74372;BME280;62885;51.374;6.170;2022-11-20T03:14:51;100974.50;;;0.21;83.59
74372;BME280;62885;51.374;6.170;2022-11-20T03:17:16;100985.44;;;0.36;83.73
74372;BME280;62885;51.374;6.170;2022-11-20T03:19:42;100995.13;;;0.36;83.27
74372;BME280;62885;51.374;6.170;2022-11-20T03:22:07;100999.44;;;0.38;82.61
74372;BME280;62885;51.374;6.170;2022-11-20T03:24:32;101000.47;;;0.33;82.35
74372;BME280;62885;51.374;6.170;2022-11-20T03:26:58;100989.81;;;0.37;82.18
74372;BME280;62885;51.374;6.170;2022-11-20T03:29:23;100990.47;;;0.46;83.04
74372;BME280;62885;51.374;6.170;2022-11-20T03:31:48;100986.84;;;0.48;81.51
74372;BME280;62885;51.374;6.170;2022-11-20T03:34:14;100979.63;;;0.25;81.99
74372;BME280;62885;51.374;6.170;2022-11-20T03:36:40;100984.34;;;0.44;81.67
74372;BME280;62885;51.374;6.170;2022-11-20T03:39:06;100980.91;;;0.41;81.26
74372;BME280;62885;51.374;6.170;2022-11-20T03:41:36;100974.38;;;0.25;82.15
74372;BME280;62885;51.374;6.170;2022-11-20T03:44:04;100972.34;;;0.35;82.42
74372;BME280;62885;51.374;6.170;2022-11-20T03:46:30;100972.75;;;0.51;81.67
74372;BME280;62885;51.374;6.170;2022-11-20T03:48:56;100973.44;;;0.56;81.64
74372;BME280;62885;51.374;6.170;2022-11-20T03:51:30;100970.59;;;0.63;80.99
74372;BME280;62885;51.374;6.170;2022-11-20T03:53:58;100967.28;;;0.57;81.40
74372;BME280;62885;51.374;6.170;2022-11-20T03:56:25;100961.16;;;0.56;81.75
74372;BME280;62885;51.374;6.170;2022-11-20T03:58:51;100959.13;;;0.64;82.07
74372;BME280;62885;51.374;6.170;2022-11-20T04:01:21;100957.72;;;0.53;81.50
74372;BME280;62885;51.374;6.170;2022-11-20T04:03:48;100951.81;;;0.46;81.90
74372;BME280;62885;51.374;6.170;2022-11-20T04:06:16;100951.69;;;0.49;82.29
74372;BME280;62885;51.374;6.170;2022-11-20T04:08:42;100946.25;;;0.55;81.81
74372;BME280;62885;51.374;6.170;2022-11-20T04:11:19;100939.34;;;0.51;82.02
74372;BME280;62885;51.374;6.170;2022-11-20T04:13:49;100936.19;;;0.40;82.32
74372;BME280;62885;51.374;6.170;2022-11-20T04:16:16;100940.16;;;0.53;82.40
74372;BME280;62885;51.374;6.170;2022-11-20T04:18:42;100941.88;;;0.54;81.77
74372;BME280;62885;51.374;6.170;2022-11-20T04:21:08;100937.31;;;0.59;81.04
74372;BME280;62885;51.374;6.170;2022-11-20T04:23:34;100944.19;;;0.37;81.82
74372;BME280;62885;51.374;6.170;2022-11-20T04:26:04;100940.00;;;0.30;82.06
74372;BME280;62885;51.374;6.170;2022-11-20T04:28:29;100950.09;;;0.45;82.52
74372;BME280;62885;51.374;6.170;2022-11-20T04:31:05;100937.63;;;0.50;81.84
74372;BME280;62885;51.374;6.170;2022-11-20T04:33:31;100945.59;;;0.47;81.06
74372;BME280;62885;51.374;6.170;2022-11-20T04:36:00;100936.38;;;0.34;81.74
74372;BME280;62885;51.374;6.170;2022-11-20T04:38:26;100942.00;;;0.51;81.21
74372;BME280;62885;51.374;6.170;2022-11-20T04:40:59;100940.91;;;0.58;82.13
74372;BME280;62885;51.374;6.170;2022-11-20T04:43:24;100943.09;;;0.44;81.41
74372;BME280;62885;51.374;6.170;2022-11-20T04:45:51;100939.84;;;0.64;80.74
74372;BME280;62885;51.374;6.170;2022-11-20T04:48:16;100935.75;;;0.54;81.33
74372;BME280;62885;51.374;6.170;2022-11-20T04:50:41;100934.38;;;0.70;81.14
74372;BME280;62885;51.374;6.170;2022-11-20T04:53:07;100941.34;;;0.71;80.75
74372;BME280;62885;51.374;6.170;2022-11-20T04:55:32;100936.91;;;0.73;81.18
74372;BME280;62885;51.374;6.170;2022-11-20T04:57:57;100934.03;;;0.80;81.08
74372;BME280;62885;51.374;6.170;2022-11-20T05:00:23;100933.88;;;0.85;80.87
74372;BME280;62885;51.374;6.170;2022-11-20T05:02:49;100926.41;;;0.71;80.60
74372;BME280;62885;51.374;6.170;2022-11-20T05:05:14;100925.78;;;0.91;80.37
74372;BME280;62885;51.374;6.170;2022-11-20T05:07:39;100917.53;;;1.00;80.69
74372;BME280;62885;51.374;6.170;2022-11-20T05:10:05;100924.47;;;1.04;80.48
74372;BME280;62885;51.374;6.170;2022-11-20T05:12:31;100929.78;;;1.03;80.77
74372;BME280;62885;51.374;6.170;2022-11-20T05:14:56;100933.00;;;0.85;80.15
74372;BME280;62885;51.374;6.170;2022-11-20T05:17:21;100934.97;;;0.78;81.13
74372;BME280;62885;51.374;6.170;2022-11-20T05:19:47;100923.84;;;0.70;81.21
74372;BME280;62885;51.374;6.170;2022-11-20T05:22:12;100933.16;;;0.80;81.09
74372;BME280;62885;51.374;6.170;2022-11-20T05:24:37;100933.88;;;0.85;80.82
74372;BME280;62885;51.374;6.170;2022-11-20T05:27:02;100937.06;;;0.95;81.42
74372;BME280;62885;51.374;6.170;2022-11-20T05:29:28;100922.81;;;1.00;80.76
74372;BME280;62885;51.374;6.170;2022-11-20T05:31:53;100930.19;;;0.91;80.62
74372;BME280;62885;51.374;6.170;2022-11-20T05:34:19;100927.59;;;0.89;80.75
74372;BME280;62885;51.374;6.170;2022-11-20T05:36:44;100922.59;;;1.06;80.69
74372;BME280;62885;51.374;6.170;2022-11-20T05:39:09;100923.88;;;0.95;80.75
74372;BME280;62885;51.374;6.170;2022-11-20T05:41:35;100915.56;;;1.07;80.37
74372;BME280;62885;51.374;6.170;2022-11-20T05:44:00;100912.19;;;1.03;79.74
74372;BME280;62885;51.374;6.170;2022-11-20T05:46:25;100914.66;;;1.08;80.22
74372;BME280;62885;51.374;6.170;2022-11-20T05:48:51;100912.44;;;0.96;80.68
74372;BME280;62885;51.374;6.170;2022-11-20T05:51:18;100920.34;;;0.96;80.82
74372;BME280;62885;51.374;6.170;2022-11-20T05:53:44;100917.75;;;0.94;81.26
74372;BME280;62885;51.374;6.170;2022-11-20T05:56:13;100915.03;;;0.97;81.55
74372;BME280;62885;51.374;6.170;2022-11-20T05:58:39;100908.72;;;1.01;81.41
74372;BME280;62885;51.374;6.170;2022-11-20T06:01:07;100913.84;;;0.79;81.97
74372;BME280;62885;51.374;6.170;2022-11-20T06:03:32;100920.78;;;0.56;82.83
74372;BME280;62885;51.374;6.170;2022-11-20T06:06:02;100914.41;;;0.63;83.42
74372;BME280;62885;51.374;6.170;2022-11-20T06:08:28;100916.13;;;0.64;83.16
74372;BME280;62885;51.374;6.170;2022-11-20T06:10:53;100919.38;;;0.72;82.85
74372;BME280;62885;51.374;6.170;2022-11-20T06:13:19;100917.25;;;0.83;82.71
74372;BME280;62885;51.374;6.170;2022-11-20T06:15:51;100916.19;;;0.62;82.60
74372;BME280;62885;51.374;6.170;2022-11-20T06:18:18;100911.47;;;0.72;82.82
74372;BME280;62885;51.374;6.170;2022-11-20T06:20:44;100922.34;;;0.88;82.31
74372;BME280;62885;51.374;6.170;2022-11-20T06:23:09;100923.00;;;0.94;81.67
74372;BME280;62885;51.374;6.170;2022-11-20T06:25:41;100925.41;;;1.02;82.37
74372;BME280;62885;51.374;6.170;2022-11-20T06:28:08;100928.94;;;1.01;82.13
74372;BME280;62885;51.374;6.170;2022-11-20T06:30:34;100926.00;;;0.83;83.00
74372;BME280;62885;51.374;6.170;2022-11-20T06:33:00;100934.16;;;0.76;82.04
74372;BME280;62885;51.374;6.170;2022-11-20T06:35:25;100927.75;;;0.85;82.70
74372;BME280;62885;51.374;6.170;2022-11-20T06:37:50;100931.00;;;0.93;81.90
74372;BME280;62885;51.374;6.170;2022-11-20T06:40:16;100931.59;;;1.01;81.44
74372;BME280;62885;51.374;6.170;2022-11-20T06:42:41;100939.22;;;1.10;81.40
74372;BME280;62885;51.374;6.170;2022-11-20T06:45:07;100933.44;;;0.99;82.01
74372;BME280;62885;51.374;6.170;2022-11-20T06:47:33;100937.84;;;0.98;82.00
74372;BME280;62885;51.374;6.170;2022-11-20T06:49:58;100950.75;;;1.06;82.03
74372;BME280;62885;51.374;6.170;2022-11-20T06:52:23;100947.75;;;0.90;82.49
74372;BME280;62885;51.374;6.170;2022-11-20T06:54:49;100948.47;;;0.95;82.38
74372;BME280;62885;51.374;6.170;2022-11-20T06:57:14;100951.81;;;1.00;83.12
74372;BME280;62885;51.374;6.170;2022-11-20T06:59:39;100953.88;;;1.17;82.05
74372;BME280;62885;51.374;6.170;2022-11-20T07:02:05;100950.78;;;1.31;82.00
74372;BME280;62885;51.374;6.170;2022-11-20T07:04:30;100951.31;;;1.40;81.45
74372;BME280;62885;51.374;6.170;2022-11-20T07:06:55;100951.25;;;1.43;81.37
74372;BME280;62885;51.374;6.170;2022-11-20T07:09:21;100953.41;;;1.57;81.83
74372;BME280;62885;51.374;6.170;2022-11-20T07:11:46;100934.13;;;1.55;81.47
74372;BME280;62885;51.374;6.170;2022-11-20T07:14:11;100938.25;;;1.62;80.94
74372;BME280;62885;51.374;6.170;2022-11-20T07:16:36;100939.00;;;1.65;80.98
74372;BME280;62885;51.374;6.170;2022-11-20T07:19:02;100944.19;;;1.69;81.33
74372;BME280;62885;51.374;6.170;2022-11-20T07:21:27;100942.13;;;1.52;81.68
74372;BME280;62885;51.374;6.170;2022-11-20T07:23:52;100948.03;;;1.58;80.99
74372;BME280;62885;51.374;6.170;2022-11-20T07:26:18;100946.66;;;1.73;81.43
74372;BME280;62885;51.374;6.170;2022-11-20T07:28:45;100938.91;;;1.69;81.09
74372;BME280;62885;51.374;6.170;2022-11-20T07:31:10;100938.69;;;1.75;81.80
74372;BME280;62885;51.374;6.170;2022-11-20T07:33:37;100937.53;;;1.82;81.77
74372;BME280;62885;51.374;6.170;2022-11-20T07:36:03;100936.41;;;1.89;81.84
74372;BME280;62885;51.374;6.170;2022-11-20T07:38:28;100925.09;;;1.85;81.43
74372;BME280;62885;51.374;6.170;2022-11-20T07:40:55;100929.78;;;1.77;82.08
74372;BME280;62885;51.374;6.170;2022-11-20T07:43:21;100925.19;;;1.82;82.31
74372;BME280;62885;51.374;6.170;2022-11-20T07:45:46;100936.41;;;1.89;81.78
74372;BME280;62885;51.374;6.170;2022-11-20T07:48:12;100930.03;;;1.94;81.76
74372;BME280;62885;51.374;6.170;2022-11-20T07:50:37;100931.81;;;1.94;81.71
74372;BME280;62885;51.374;6.170;2022-11-20T07:53:04;100932.63;;;1.96;81.63
74372;BME280;62885;51.374;6.170;2022-11-20T07:55:30;100928.75;;;1.81;82.45
74372;BME280;62885;51.374;6.170;2022-11-20T07:57:55;100930.66;;;1.78;82.47
74372;BME280;62885;51.374;6.170;2022-11-20T08:00:22;100935.25;;;1.96;82.17
74372;BME280;62885;51.374;6.170;2022-11-20T08:02:48;100938.72;;;1.98;82.33
74372;BME280;62885;51.374;6.170;2022-11-20T08:05:13;100937.03;;;1.95;82.84
74372;BME280;62885;51.374;6.170;2022-11-20T08:07:40;100926.97;;;2.05;82.49
74372;BME280;62885;51.374;6.170;2022-11-20T08:10:07;100935.81;;;2.04;82.53
74372;BME280;62885;51.374;6.170;2022-11-20T08:12:33;100928.53;;;2.11;82.46
74372;BME280;62885;51.374;6.170;2022-11-20T08:15:17;100911.31;;;2.24;82.41
74372;BME280;62885;51.374;6.170;2022-11-20T08:17:42;100922.91;;;2.20;82.03
74372;BME280;62885;51.374;6.170;2022-11-20T08:20:08;100909.72;;;2.20;82.00
74372;BME280;62885;51.374;6.170;2022-11-20T08:22:34;100919.75;;;2.10;81.69
74372;BME280;62885;51.374;6.170;2022-11-20T08:24:59;100918.59;;;2.17;81.82
74372;BME280;62885;51.374;6.170;2022-11-20T08:27:24;100925.31;;;2.26;81.62
74372;BME280;62885;51.374;6.170;2022-11-20T08:29:50;100918.94;;;2.31;80.99
74372;BME280;62885;51.374;6.170;2022-11-20T08:32:15;100917.72;;;2.40;80.79
74372;BME280;62885;51.374;6.170;2022-11-20T08:34:40;100914.53;;;2.32;80.49
74372;BME280;62885;51.374;6.170;2022-11-20T08:37:06;100922.50;;;2.30;80.86
74372;BME280;62885;51.374;6.170;2022-11-20T08:39:31;100910.16;;;2.31;80.53
74372;BME280;62885;51.374;6.170;2022-11-20T08:41:56;100913.09;;;2.45;80.70
74372;BME280;62885;51.374;6.170;2022-11-20T08:44:22;100905.97;;;2.47;80.37
74372;BME280;62885;51.374;6.170;2022-11-20T08:46:47;100909.50;;;2.47;80.51
74372;BME280;62885;51.374;6.170;2022-11-20T08:49:13;100907.09;;;2.63;80.25
74372;BME280;62885;51.374;6.170;2022-11-20T08:51:39;100901.94;;;2.60;80.00
74372;BME280;62885;51.374;6.170;2022-11-20T08:54:06;100896.03;;;2.54;80.43
74372;BME280;62885;51.374;6.170;2022-11-20T08:56:32;100901.63;;;2.46;80.68
74372;BME280;62885;51.374;6.170;2022-11-20T08:58:58;100904.25;;;2.46;80.48
74372;BME280;62885;51.374;6.170;2022-11-20T09:01:27;100900.59;;;2.50;80.74
74372;BME280;62885;51.374;6.170;2022-11-20T09:03:57;100917.50;;;2.68;80.61
74372;BME280;62885;51.374;6.170;2022-11-20T09:06:23;100907.75;;;2.68;80.57
74372;BME280;62885;51.374;6.170;2022-11-20T09:08:52;100908.63;;;2.69;81.11
74372;BME280;62885;51.374;6.170;2022-11-20T09:11:17;100904.88;;;2.74;81.02
74372;BME280;62885;51.374;6.170;2022-11-20T09:13:43;100903.50;;;2.86;80.72
74372;BME280;62885;51.374;6.170;2022-11-20T09:16:08;100913.56;;;2.98;80.48
74372;BME280;62885;51.374;6.170;2022-11-20T09:18:35;100910.41;;;3.10;79.85
74372;BME280;62885;51.374;6.170;2022-11-20T09:21:10;100912.16;;;3.11;79.98
74372;BME280;62885;51.374;6.170;2022-11-20T09:23:37;100908.38;;;3.17;79.97
74372;BME280;62885;51.374;6.170;2022-11-20T09:26:10;100908.59;;;3.12;79.95
74372;BME280;62885;51.374;6.170;2022-11-20T09:28:36;100907.56;;;3.15;79.94
74372;BME280;62885;51.374;6.170;2022-11-20T09:31:06;100899.25;;;3.24;79.99
74372;BME280;62885;51.374;6.170;2022-11-20T09:33:31;100896.88;;;3.38;80.26
74372;BME280;62885;51.374;6.170;2022-11-20T09:35:56;100905.00;;;3.34;79.90
74372;BME280;62885;51.374;6.170;2022-11-20T09:38:22;100907.66;;;3.34;80.64
74372;BME280;62885;51.374;6.170;2022-11-20T09:41:01;100900.06;;;3.46;80.85
74372;BME280;62885;51.374;6.170;2022-11-20T09:44:00;100896.34;;;3.50;80.35
74372;BME280;62885;51.374;6.170;2022-11-20T09:49:23;100895.69;;;3.45;80.80
74372;BME280;62885;51.374;6.170;2022-11-20T09:52:01;100890.34;;;3.47;81.50
74372;BME280;62885;51.374;6.170;2022-11-20T09:54:38;100886.59;;;3.71;81.05
74372;BME280;62885;51.374;6.170;2022-11-20T09:57:10;100874.84;;;3.58;81.01
74372;BME280;62885;51.374;6.170;2022-11-20T09:59:47;100880.94;;;3.79;81.18
74372;BME280;62885;51.374;6.170;2022-11-20T10:04:57;100869.34;;;3.81;80.95
74372;BME280;62885;51.374;6.170;2022-11-20T10:07:48;100865.69;;;3.65;81.59
74372;BME280;62885;51.374;6.170;2022-11-20T10:10:20;100862.19;;;3.64;81.69
74372;BME280;62885;51.374;6.170;2022-11-20T10:21:35;100861.75;;;3.73;83.11
74372;BME280;62885;51.374;6.170;2022-11-20T10:30:01;100841.72;;;3.68;83.72
74372;BME280;62885;51.374;6.170;2022-11-20T10:32:34;100834.34;;;3.75;83.67
74372;BME280;62885;51.374;6.170;2022-11-20T10:37:32;100831.22;;;3.66;83.83
74372;BME280;62885;51.374;6.170;2022-11-20T10:40:18;100833.78;;;3.68;83.95
74372;BME280;62885;51.374;6.170;2022-11-20T10:42:55;100821.63;;;3.83;83.91
74372;BME280;62885;51.374;6.170;2022-11-20T10:47:49;100810.81;;;3.87;83.38
74372;BME280;62885;51.374;6.170;2022-11-20T10:50:19;100800.66;;;3.78;83.53
74372;BME280;62885;51.374;6.170;2022-11-20T10:53:08;100796.59;;;3.71;84.54
74372;BME280;62885;51.374;6.170;2022-11-20T10:55:55;100795.28;;;3.80;84.05
74372;BME280;62885;51.374;6.170;2022-11-20T11:01:03;100771.16;;;3.86;83.96
74372;BME280;62885;51.374;6.170;2022-11-20T11:03:30;100768.09;;;3.95;83.52
74372;BME280;62885;51.374;6.170;2022-11-20T11:08:35;100770.94;;;3.90;84.00
74372;BME280;62885;51.374;6.170;2022-11-20T11:11:12;100763.44;;;4.00;83.47
74372;BME280;62885;51.374;6.170;2022-11-20T11:13:40;100761.88;;;3.96;83.65
74372;BME280;62885;51.374;6.170;2022-11-20T11:16:20;100753.56;;;3.85;84.35
74372;BME280;62885;51.374;6.170;2022-11-20T11:18:45;100755.91;;;3.91;84.02
74372;BME280;62885;51.374;6.170;2022-11-20T11:21:11;100752.78;;;4.01;83.73
74372;BME280;62885;51.374;6.170;2022-11-20T11:23:41;100749.66;;;4.10;84.21
74372;BME280;62885;51.374;6.170;2022-11-20T11:26:20;100747.72;;;4.14;83.84
74372;BME280;62885;51.374;6.170;2022-11-20T11:28:58;100735.63;;;4.08;83.84
74372;BME280;62885;51.374;6.170;2022-11-20T11:31:29;100738.75;;;4.17;83.46
74372;BME280;62885;51.374;6.170;2022-11-20T11:34:12;100737.31;;;4.28;83.15
74372;BME280;62885;51.374;6.170;2022-11-20T11:36:38;100719.00;;;4.24;83.63
74372;BME280;62885;51.374;6.170;2022-11-20T11:39:06;100720.72;;;4.25;83.76
74372;BME280;62885;51.374;6.170;2022-11-20T11:41:36;100713.06;;;4.19;83.68
74372;BME280;62885;51.374;6.170;2022-11-20T11:44:28;100706.00;;;4.36;83.24
74372;BME280;62885;51.374;6.170;2022-11-20T11:47:24;100697.63;;;4.44;82.98
74372;BME280;62885;51.374;6.170;2022-11-20T11:57:48;100702.72;;;4.66;82.74
74372;BME280;62885;51.374;6.170;2022-11-20T12:00:16;100697.16;;;4.70;82.28
74372;BME280;62885;51.374;6.170;2022-11-20T12:05:26;100693.06;;;4.80;82.01
74372;BME280;62885;51.374;6.170;2022-11-20T12:08:03;100691.53;;;4.76;81.99
74372;BME280;62885;51.374;6.170;2022-11-20T12:10:55;100690.50;;;4.79;82.89
74372;BME280;62885;51.374;6.170;2022-11-20T12:15:59;100684.34;;;4.78;82.26
74372;BME280;62885;51.374;6.170;2022-11-20T12:18:25;100673.03;;;4.75;82.66
74372;BME280;62885;51.374;6.170;2022-11-20T12:26:17;100650.59;;;4.97;82.58
74372;BME280;62885;51.374;6.170;2022-11-20T12:36:57;100627.97;;;4.90;83.91
74372;BME280;62885;51.374;6.170;2022-11-20T12:39:41;100631.41;;;4.92;84.28
74372;BME280;62885;51.374;6.170;2022-11-20T13:00:19;100582.94;;;5.06;84.98
74372;BME280;62885;51.374;6.170;2022-11-20T13:02:26;100573.22;;;4.89;85.62
74372;BME280;62885;51.374;6.170;2022-11-20T13:05:14;100568.63;;;4.93;86.65
74372;BME280;62885;51.374;6.170;2022-11-20T13:07:43;100559.19;;;4.87;87.20
74372;BME280;62885;51.374;6.170;2022-11-20T13:10:23;100559.63;;;4.80;87.54
74372;BME280;62885;51.374;6.170;2022-11-20T13:13:05;100561.66;;;4.75;87.54
74372;BME280;62885;51.374;6.170;2022-11-20T13:18:04;100562.53;;;4.91;88.29
74372;BME280;62885;51.374;6.170;2022-11-20T13:20:30;100558.59;;;4.98;88.20
74372;BME280;62885;51.374;6.170;2022-11-20T13:22:58;100554.84;;;5.02;88.42
74372;BME280;62885;51.374;6.170;2022-11-20T13:25:24;100552.19;;;5.02;87.98
74372;BME280;62885;51.374;6.170;2022-11-20T13:27:50;100544.66;;;4.94;88.12
74372;BME280;62885;51.374;6.170;2022-11-20T13:30:24;100538.91;;;5.02;88.23
74372;BME280;62885;51.374;6.170;2022-11-20T13:33:20;100536.38;;;5.01;88.15
74372;BME280;62885;51.374;6.170;2022-11-20T13:36:04;100519.75;;;4.97;88.51
74372;BME280;62885;51.374;6.170;2022-11-20T13:39:02;100520.00;;;4.92;88.82
74372;BME280;62885;51.374;6.170;2022-11-20T13:41:34;100512.06;;;4.92;88.37
74372;BME280;62885;51.374;6.170;2022-11-20T13:46:54;100492.13;;;4.85;88.25
74372;BME280;62885;51.374;6.170;2022-11-20T13:49:34;100494.44;;;4.91;89.21
74372;BME280;62885;51.374;6.170;2022-11-20T13:57:30;100478.25;;;4.96;89.19
74372;BME280;62885;51.374;6.170;2022-11-20T14:00:15;100472.63;;;4.86;89.51
74372;BME280;62885;51.374;6.170;2022-11-20T14:02:42;100468.50;;;4.96;89.38
74372;BME280;62885;51.374;6.170;2022-11-20T14:05:19;100455.38;;;5.09;89.53
74372;BME280;62885;51.374;6.170;2022-11-20T14:07:45;100460.63;;;5.11;89.06
74372;BME280;62885;51.374;6.170;2022-11-20T14:10:28;100459.47;;;5.15;89.03
74372;BME280;62885;51.374;6.170;2022-11-20T14:12:53;100445.84;;;5.21;88.73
74372;BME280;62885;51.374;6.170;2022-11-20T14:15:32;100435.78;;;5.12;89.10
74372;BME280;62885;51.374;6.170;2022-11-20T14:17:59;100425.84;;;5.15;88.90
74372;BME280;62885;51.374;6.170;2022-11-20T14:20:28;100423.53;;;5.09;89.04
74372;BME280;62885;51.374;6.170;2022-11-20T14:22:55;100417.97;;;5.14;89.28
74372;BME280;62885;51.374;6.170;2022-11-20T14:25:22;100411.56;;;5.18;88.82
74372;BME280;62885;51.374;6.170;2022-11-20T14:27:56;100411.44;;;5.19;88.81
74372;BME280;62885;51.374;6.170;2022-11-20T14:30:38;100413.84;;;5.24;88.85
74372;BME280;62885;51.374;6.170;2022-11-20T14:33:10;100408.66;;;5.36;88.24
74372;BME280;62885;51.374;6.170;2022-11-20T14:35:42;100414.44;;;5.29;89.03
74372;BME280;62885;51.374;6.170;2022-11-20T14:38:12;100404.69;;;5.29;89.18